createdAt,value
2023-04-25T00:00:14.445Z,5.46
2023-04-25T00:02:41.138Z,5.41
2023-04-25T00:05:08.374Z,5.04
2023-04-25T00:07:35.700Z,5.61
2023-04-25T00:10:02.302Z,5.30
2023-04-25T00:12:31.591Z,5.05
2023-04-25T00:14:58.240Z,5.27
2023-04-25T00:17:25.750Z,5.45
2023-04-25T00:19:52.554Z,5.46
2023-04-25T00:22:19.582Z,5.21
2023-04-25T00:24:46.165Z,5.29
2023-04-25T00:27:12.683Z,5.79
2023-04-25T00:29:39.305Z,5.15
2023-04-25T00:32:05.918Z,5.17
2023-04-25T00:34:32.566Z,5.12
2023-04-25T00:36:59.417Z,5.42
2023-04-25T00:39:25.932Z,5.55
2023-04-25T00:41:55.558Z,5.29
2023-04-25T00:44:22.611Z,5.54
2023-04-25T00:46:50.420Z,5.46
2023-04-25T00:49:17.924Z,5.34
2023-04-25T00:51:45.633Z,5.39
2023-04-25T00:54:13.664Z,5.50
2023-04-25T00:56:41.390Z,5.34
2023-04-25T00:59:08.369Z,5.06
2023-04-25T01:01:34.936Z,5.08
2023-04-25T01:04:02.051Z,5.02
2023-04-25T01:06:28.651Z,5.11
2023-04-25T01:08:55.373Z,5.29
2023-04-25T01:11:21.999Z,5.29
2023-04-25T01:13:48.862Z,5.17
2023-04-25T01:16:16.163Z,5.15
2023-04-25T01:18:43.788Z,5.28
2023-04-25T01:21:12.532Z,5.19
2023-04-25T01:23:40.902Z,5.16
2023-04-25T01:26:10.304Z,5.18
2023-04-25T01:28:37.180Z,5.27
2023-04-25T01:31:03.985Z,4.92
2023-04-25T01:33:31.030Z,4.98
2023-04-25T01:35:57.542Z,4.67
2023-04-25T01:38:24.238Z,5.27
2023-04-25T01:40:53.036Z,4.83
2023-04-25T01:43:19.883Z,5.03
2023-04-25T01:45:46.623Z,5.26
2023-04-25T01:48:15.064Z,5.18
2023-04-25T01:50:42.536Z,5.31
2023-04-25T01:53:12.030Z,5.33
2023-04-25T01:55:38.854Z,4.85
2023-04-25T01:58:10.278Z,5.18
2023-04-25T02:00:39.687Z,5.10
2023-04-25T02:03:06.780Z,5.01
2023-04-25T02:05:41.310Z,4.81
2023-04-25T02:08:08.673Z,4.79
2023-04-25T02:10:35.998Z,5.00
2023-04-25T02:13:02.704Z,4.76
2023-04-25T02:15:29.212Z,4.83
2023-04-25T02:17:56.345Z,4.83
2023-04-25T02:20:24.402Z,4.83
2023-04-25T02:22:51.460Z,5.14
2023-04-25T02:25:20.722Z,4.61
2023-04-25T02:27:48.391Z,4.61
2023-04-25T02:30:14.953Z,4.54
2023-04-25T02:32:42.320Z,4.49
2023-04-25T02:35:10.264Z,4.69
2023-04-25T02:37:38.354Z,4.87
2023-04-25T02:40:05.550Z,4.80
2023-04-25T02:42:32.317Z,4.67
2023-04-25T02:44:58.863Z,4.63
2023-04-25T02:47:25.515Z,4.57
2023-04-25T02:49:52.124Z,4.54
2023-04-25T02:52:18.706Z,4.61
2023-04-25T02:54:45.265Z,4.42
2023-04-25T02:57:11.817Z,4.33
2023-04-25T02:59:39.893Z,4.63
2023-04-25T03:02:06.411Z,4.57
2023-04-25T03:04:34.383Z,4.57
2023-04-25T03:07:00.953Z,5.00
2023-04-25T03:09:27.879Z,4.55
2023-04-25T03:11:54.409Z,4.39
2023-04-25T03:14:21.084Z,4.69
2023-04-25T03:16:47.686Z,4.87
2023-04-25T03:19:17.004Z,4.70
2023-04-25T03:21:44.112Z,4.77
2023-04-25T03:24:11.942Z,4.66
2023-04-25T03:26:38.553Z,4.66
2023-04-25T03:29:05.203Z,5.21
2023-04-25T03:31:32.171Z,4.59
2023-04-25T03:33:58.852Z,4.70
2023-04-25T03:36:25.417Z,4.84
2023-04-25T03:38:51.961Z,4.83
2023-04-25T03:41:18.536Z,4.93
2023-04-25T03:43:45.128Z,4.88
2023-04-25T03:46:11.744Z,4.73
2023-04-25T03:48:38.315Z,4.81
2023-04-25T03:51:04.875Z,4.95
2023-04-25T03:53:31.436Z,4.69
2023-04-25T03:55:58.017Z,4.45
2023-04-25T03:58:25.358Z,4.50
2023-04-25T04:00:52.533Z,4.63
2023-04-25T04:03:19.357Z,4.56
2023-04-25T04:05:46.119Z,4.71
2023-04-25T04:08:13.175Z,4.30
2023-04-25T04:10:39.835Z,3.84
2023-04-25T04:13:06.397Z,4.35
2023-04-25T04:15:34.045Z,4.00
2023-04-25T04:18:03.721Z,4.37
2023-04-25T04:20:33.519Z,3.99
2023-04-25T04:23:00.125Z,3.91
2023-04-25T04:25:27.208Z,4.13
2023-04-25T04:27:55.636Z,4.08
2023-04-25T04:30:25.075Z,3.79
2023-04-25T04:32:52.372Z,3.82
2023-04-25T04:35:18.943Z,3.47
2023-04-25T04:37:46.746Z,3.65
2023-04-25T04:40:16.370Z,3.70
2023-04-25T04:42:49.076Z,3.86
2023-04-25T04:45:15.671Z,3.62
2023-04-25T04:47:42.325Z,3.49
2023-04-25T04:50:10.282Z,3.26
2023-04-25T04:52:38.073Z,3.29
2023-04-25T04:55:06.386Z,3.32
2023-04-25T04:57:33.875Z,3.00
2023-04-25T05:00:00.828Z,3.40
2023-04-25T05:02:28.362Z,3.13
2023-04-25T05:04:55.379Z,3.18
2023-04-25T05:07:22.053Z,3.20
2023-04-25T05:09:48.577Z,3.22
2023-04-25T05:12:15.140Z,2.89
2023-04-25T05:14:41.705Z,3.22
2023-04-25T05:17:09.403Z,3.57
2023-04-25T05:19:36.130Z,3.71
2023-04-25T05:22:03.669Z,3.66
2023-04-25T05:24:31.442Z,3.23
2023-04-25T05:26:58.382Z,3.23
2023-04-25T05:29:25.053Z,3.10
2023-04-25T05:31:51.668Z,2.96
2023-04-25T05:34:18.216Z,3.16
2023-04-25T05:36:44.847Z,3.22
2023-04-25T05:39:11.531Z,2.94
2023-04-25T05:41:38.138Z,3.34
2023-04-25T05:44:04.712Z,3.04
2023-04-25T05:46:31.373Z,3.09
2023-04-25T05:48:58.054Z,3.18
2023-04-25T05:51:24.732Z,3.34
2023-04-25T05:53:51.585Z,3.36
2023-04-25T05:56:18.460Z,3.24
2023-04-25T05:58:45.184Z,3.27
2023-04-25T06:01:11.740Z,2.99
2023-04-25T06:03:39.480Z,3.24
2023-04-25T06:06:06.746Z,3.40
2023-04-25T06:08:33.489Z,3.02
2023-04-25T06:11:00.064Z,3.26
2023-04-25T06:13:26.842Z,2.99
2023-04-25T06:15:53.425Z,3.26
2023-04-25T06:18:20.280Z,2.75
2023-04-25T06:20:46.870Z,2.72
2023-04-25T06:23:13.425Z,3.04
2023-04-25T06:25:39.951Z,2.80
2023-04-25T06:28:06.515Z,2.85
2023-04-25T06:30:33.114Z,3.11
2023-04-25T06:32:59.660Z,3.38
2023-04-25T06:35:26.235Z,3.03
2023-04-25T06:37:52.784Z,2.86
2023-04-25T06:40:19.369Z,3.27
2023-04-25T06:42:45.987Z,3.04
2023-04-25T06:45:12.509Z,2.84
2023-04-25T06:47:39.165Z,2.70
2023-04-25T06:50:06.834Z,2.64
2023-04-25T06:52:33.387Z,2.82
2023-04-25T06:55:00.000Z,3.38
2023-04-25T06:57:26.885Z,2.81
2023-04-25T06:59:53.443Z,3.05
2023-04-25T07:02:20.161Z,3.11
2023-04-25T07:04:47.362Z,2.81
2023-04-25T07:07:14.211Z,3.06
2023-04-25T07:09:41.264Z,2.84
2023-04-25T07:12:07.864Z,2.74
2023-04-25T07:14:34.382Z,2.96
2023-04-25T07:17:01.067Z,3.08
2023-04-25T07:19:30.567Z,2.90
2023-04-25T07:21:57.154Z,2.69
2023-04-25T07:24:23.768Z,2.71
2023-04-25T07:26:50.383Z,2.51
2023-04-25T07:29:17.125Z,2.52
2023-04-25T07:31:43.716Z,2.61
2023-04-25T07:34:10.400Z,2.56
2023-04-25T07:36:36.929Z,2.72
2023-04-25T07:39:03.505Z,2.62
2023-04-25T07:41:30.256Z,2.68
2023-04-25T07:43:56.832Z,2.81
2023-04-25T07:46:23.429Z,2.54
2023-04-25T07:48:50.061Z,2.82
2023-04-25T07:51:16.762Z,2.57
2023-04-25T07:53:43.559Z,2.48
2023-04-25T07:56:10.204Z,2.46
2023-04-25T07:58:37.033Z,2.45
2023-04-25T08:01:03.858Z,2.75
2023-04-25T08:03:30.763Z,2.80
2023-04-25T08:05:59.045Z,2.29
2023-04-25T08:08:26.134Z,2.76
2023-04-25T08:10:56.727Z,2.64
2023-04-25T08:13:23.293Z,2.68
2023-04-25T08:15:49.875Z,2.33
2023-04-25T08:18:17.723Z,2.57
2023-04-25T08:20:44.586Z,2.74
2023-04-25T08:23:11.813Z,2.70
2023-04-25T08:25:38.398Z,2.75
2023-04-25T08:28:05.120Z,2.46
2023-04-25T08:30:32.088Z,2.30
2023-04-25T08:32:58.803Z,2.51
2023-04-25T08:35:25.575Z,1.74
2023-04-25T08:37:52.323Z,2.25
2023-04-25T08:40:20.419Z,1.94
2023-04-25T08:42:48.057Z,1.69
2023-04-25T08:45:14.660Z,1.58
2023-04-25T08:47:42.641Z,1.67
2023-04-25T08:50:09.465Z,1.64
2023-04-25T08:52:45.935Z,1.77
2023-04-25T08:55:14.159Z,1.78
2023-04-25T08:57:43.779Z,2.20
2023-04-25T09:00:12.881Z,2.18
2023-04-25T09:02:44.828Z,2.29
2023-04-25T09:05:14.491Z,2.88
2023-04-25T09:07:41.325Z,2.74
2023-04-25T09:10:08.314Z,2.44
2023-04-25T09:12:36.241Z,2.57
2023-04-25T09:15:20.505Z,2.21
2023-04-25T09:17:56.630Z,2.30
2023-04-25T09:20:23.261Z,2.26
2023-04-25T09:22:49.821Z,2.22
2023-04-25T09:25:16.718Z,2.18
2023-04-25T09:27:54.373Z,2.18
2023-04-25T09:30:31.361Z,2.08
2023-04-25T09:32:59.607Z,2.07
2023-04-25T09:35:27.311Z,1.90
2023-04-25T09:37:53.984Z,1.92
2023-04-25T09:40:20.665Z,2.45
2023-04-25T09:42:47.244Z,2.25
2023-04-25T09:45:16.692Z,2.27
2023-04-25T09:47:44.958Z,2.54
2023-04-25T09:50:16.794Z,2.11
2023-04-25T09:52:43.388Z,1.70
2023-04-25T09:55:09.947Z,1.78
2023-04-25T09:57:36.977Z,2.00
2023-04-25T10:00:06.332Z,1.89
2023-04-25T10:02:35.984Z,1.53
2023-04-25T10:05:04.570Z,1.77
2023-04-25T10:07:32.252Z,1.56
2023-04-25T10:10:04.486Z,2.00
2023-04-25T10:12:34.191Z,1.93
2023-04-25T10:15:02.251Z,1.75
2023-04-25T10:17:29.232Z,1.83
2023-04-25T10:19:56.524Z,1.68
2023-04-25T10:22:41.591Z,1.68
2023-04-25T10:25:09.360Z,1.97
2023-04-25T10:27:36.959Z,1.80
2023-04-25T10:30:13.495Z,1.57
2023-04-25T10:32:40.143Z,1.63
2023-04-25T10:35:16.354Z,1.74
2023-04-25T10:38:06.582Z,1.63
2023-04-25T10:40:34.241Z,1.50
2023-04-25T10:43:31.913Z,1.86
2023-04-25T10:46:01.494Z,1.64
2023-04-25T10:48:29.270Z,1.83
2023-04-25T10:51:12.742Z,1.91
2023-04-25T10:53:39.340Z,1.80
2023-04-25T10:56:14.556Z,1.79
2023-04-25T10:58:48.636Z,1.82
2023-04-25T11:01:22.155Z,1.72
2023-04-25T11:03:51.592Z,1.69
2023-04-25T11:06:24.510Z,2.14
2023-04-25T11:08:52.410Z,1.81
2023-04-25T11:11:19.752Z,1.91
2023-04-25T11:13:50.771Z,1.96
2023-04-25T11:18:50.298Z,1.86
2023-04-25T11:21:17.242Z,1.78
2023-04-25T11:23:47.233Z,1.90
2023-04-25T11:26:14.879Z,1.85
2023-04-25T11:28:41.612Z,1.88
2023-04-25T11:31:08.176Z,1.90
2023-04-25T11:33:34.693Z,1.97
2023-04-25T11:36:01.399Z,1.76
2023-04-25T11:38:29.459Z,1.64
2023-04-25T11:40:56.352Z,1.72
2023-04-25T11:43:23.639Z,1.80
2023-04-25T11:45:52.008Z,2.03
2023-04-25T11:48:25.873Z,1.87
2023-04-25T11:50:52.907Z,1.88
2023-04-25T11:53:19.667Z,1.75
2023-04-25T11:55:46.356Z,1.96
2023-04-25T11:58:14.696Z,2.02
2023-04-25T12:00:50.090Z,1.97
2023-04-25T12:03:19.670Z,2.22
2023-04-25T12:05:47.596Z,2.18
2023-04-25T12:08:15.379Z,2.08
2023-04-25T12:10:44.146Z,2.06
2023-04-25T12:13:40.279Z,2.09
2023-04-25T12:16:07.227Z,1.82
2023-04-25T12:18:37.002Z,1.82
2023-04-25T12:21:05.392Z,1.74
2023-04-25T12:23:32.541Z,1.67
2023-04-25T12:25:59.080Z,1.66
2023-04-25T12:28:28.303Z,1.67
2023-04-25T12:31:05.441Z,1.63
2023-04-25T12:33:37.027Z,1.79
2023-04-25T12:36:09.375Z,1.87
2023-04-25T12:38:41.075Z,2.10
2023-04-25T12:41:08.249Z,2.03
2023-04-25T12:43:34.851Z,1.98
2023-04-25T12:46:01.618Z,1.96
2023-04-25T12:48:28.237Z,1.66
2023-04-25T12:50:54.799Z,1.81
2023-04-25T12:53:23.462Z,1.82
2023-04-25T12:55:49.988Z,1.95
2023-04-25T12:58:18.505Z,1.90
2023-04-25T13:00:46.099Z,1.92
2023-04-25T13:03:13.570Z,1.82
2023-04-25T13:05:40.955Z,1.66
2023-04-25T13:08:07.556Z,1.49
2023-04-25T13:10:34.897Z,1.44
2023-04-25T13:13:02.037Z,1.51
2023-04-25T13:15:28.713Z,1.48
2023-04-25T13:17:55.392Z,1.54
2023-04-25T13:20:23.263Z,1.80
2023-04-25T13:22:49.896Z,1.78
2023-04-25T13:25:17.272Z,1.55
2023-04-25T13:27:45.233Z,1.68
2023-04-25T13:30:12.415Z,1.88
2023-04-25T13:32:39.871Z,1.56
2023-04-25T13:35:11.860Z,1.74
2023-04-25T13:37:39.185Z,1.62
2023-04-25T13:40:10.144Z,1.71
2023-04-25T13:42:37.697Z,1.58
2023-04-25T13:45:04.669Z,1.51
2023-04-25T13:47:32.065Z,1.58
2023-04-25T13:49:58.623Z,1.67
2023-04-25T13:52:25.271Z,1.72
2023-04-25T13:54:52.193Z,1.66
2023-04-25T13:57:19.048Z,1.93
2023-04-25T13:59:45.668Z,1.97
2023-04-25T14:02:12.672Z,1.91
2023-04-25T14:04:39.237Z,2.04
2023-04-25T14:07:05.926Z,1.97
2023-04-25T14:09:32.558Z,1.82
2023-04-25T14:11:59.207Z,1.87
2023-04-25T14:14:25.834Z,1.91
2023-04-25T14:16:54.673Z,1.93
2023-04-25T14:19:24.721Z,1.93
2023-04-25T14:21:51.647Z,1.98
2023-04-25T14:24:18.240Z,1.87
2023-04-25T14:26:44.918Z,1.93
2023-04-25T14:29:12.978Z,2.02
2023-04-25T14:31:41.227Z,2.03
2023-04-25T14:34:08.969Z,1.90
2023-04-25T14:36:37.063Z,1.93
2023-04-25T14:39:05.928Z,2.01
2023-04-25T14:41:32.601Z,2.08
2023-04-25T14:43:59.195Z,2.05
2023-04-25T14:46:25.769Z,1.95
2023-04-25T14:48:52.568Z,1.50
2023-04-25T14:51:19.113Z,1.65
2023-04-25T14:53:45.894Z,1.61
2023-04-25T14:56:13.491Z,1.56
2023-04-25T14:58:41.313Z,1.66
2023-04-25T15:01:08.109Z,1.57
2023-04-25T15:03:35.089Z,1.84
2023-04-25T15:06:01.926Z,1.89
2023-04-25T15:08:28.486Z,1.75
2023-04-25T15:10:55.033Z,1.87
2023-04-25T15:13:22.056Z,1.68
2023-04-25T15:15:52.170Z,1.51
2023-04-25T15:18:23.923Z,1.48
2023-04-25T15:20:51.982Z,1.49
2023-04-25T15:23:19.899Z,1.55
2023-04-25T15:25:47.291Z,1.32
2023-04-25T15:28:17.291Z,1.60
2023-04-25T15:30:44.508Z,1.62
2023-04-25T15:33:11.115Z,1.61
2023-04-25T15:35:37.695Z,1.89
2023-04-25T15:38:04.236Z,1.94
2023-04-25T15:40:30.797Z,2.08
2023-04-25T15:42:57.345Z,1.99
2023-04-25T15:45:28.466Z,2.02
2023-04-25T15:47:57.110Z,1.97
2023-04-25T15:50:24.152Z,2.05
2023-04-25T15:52:52.218Z,2.31
2023-04-25T15:55:21.585Z,2.41
2023-04-25T15:57:49.549Z,2.26
2023-04-25T16:00:17.569Z,2.37
2023-04-25T16:02:45.692Z,2.18
2023-04-25T16:05:14.421Z,2.15
2023-04-25T16:07:43.051Z,2.29
2023-04-25T16:10:11.280Z,2.28
2023-04-25T16:12:39.583Z,2.24
2023-04-25T16:15:06.807Z,2.09
2023-04-25T16:17:33.806Z,1.88
2023-04-25T16:20:02.949Z,2.06
2023-04-25T16:22:29.528Z,2.03
2023-04-25T16:24:56.120Z,1.88
2023-04-25T16:27:22.687Z,2.04
2023-04-25T16:29:51.220Z,2.02
2023-04-25T16:32:17.775Z,1.96
2023-04-25T16:34:44.886Z,1.92
2023-04-25T16:37:11.465Z,2.03
2023-04-25T16:39:38.065Z,2.31
2023-04-25T16:42:05.031Z,2.37
2023-04-25T16:44:31.868Z,2.32
2023-04-25T16:46:58.469Z,2.02
2023-04-25T16:49:25.116Z,2.35
2023-04-25T16:51:51.770Z,2.50
2023-04-25T16:54:18.339Z,2.11
2023-04-25T16:56:44.922Z,2.35
2023-04-25T16:59:12.085Z,2.18
2023-04-25T17:01:38.858Z,2.32
2023-04-25T17:04:05.459Z,2.07
2023-04-25T17:06:32.559Z,2.14
2023-04-25T17:08:59.124Z,1.92
2023-04-25T17:11:26.014Z,1.96
2023-04-25T17:13:53.169Z,2.02
2023-04-25T17:16:22.923Z,2.37
2023-04-25T17:18:51.327Z,2.22
2023-04-25T17:21:18.692Z,2.23
2023-04-25T17:23:48.041Z,2.33
2023-04-25T17:26:15.077Z,2.42
2023-04-25T17:28:42.210Z,2.14
2023-04-25T17:31:09.591Z,2.34
2023-04-25T17:33:36.451Z,2.24
2023-04-25T17:36:03.993Z,2.23
2023-04-25T17:38:31.523Z,2.21
2023-04-25T17:40:58.621Z,2.54
2023-04-25T17:43:26.591Z,2.42
2023-04-25T17:45:53.653Z,2.46
2023-04-25T17:48:22.749Z,2.45
2023-04-25T17:50:49.626Z,2.53
2023-04-25T17:53:16.254Z,2.48
2023-04-25T17:55:43.731Z,2.51
2023-04-25T17:58:13.899Z,2.75
2023-04-25T18:00:40.955Z,2.57
2023-04-25T18:03:07.771Z,2.50
2023-04-25T18:05:34.779Z,2.62
2023-04-25T18:08:01.418Z,3.22
2023-04-25T18:10:28.035Z,2.81
2023-04-25T18:12:54.725Z,2.87
2023-04-25T18:15:22.122Z,3.12
2023-04-25T18:17:48.800Z,2.83
2023-04-25T18:20:16.496Z,3.29
2023-04-25T18:22:44.478Z,3.34
2023-04-25T18:25:12.098Z,2.96
2023-04-25T18:27:39.760Z,3.35
2023-04-25T18:30:08.844Z,3.06
2023-04-25T18:32:35.532Z,3.13
2023-04-25T18:35:02.235Z,3.18
2023-04-25T18:37:28.868Z,3.03
2023-04-25T18:39:56.006Z,3.30
2023-04-25T18:42:22.584Z,3.54
2023-04-25T18:44:49.190Z,3.47
2023-04-25T18:47:15.836Z,3.43
2023-04-25T18:49:42.685Z,3.46
2023-04-25T18:52:10.748Z,3.58
2023-04-25T18:54:37.535Z,3.46
2023-04-25T18:57:05.956Z,3.68
2023-04-25T18:59:33.102Z,3.98
2023-04-25T19:02:01.705Z,3.99
2023-04-25T19:04:29.263Z,3.84
2023-04-25T19:06:56.161Z,3.80
2023-04-25T19:09:23.295Z,3.88
2023-04-25T19:11:49.878Z,3.96
2023-04-25T19:14:16.421Z,4.35
2023-04-25T19:16:42.992Z,4.64
2023-04-25T19:19:09.797Z,4.31
2023-04-25T19:21:36.337Z,4.19
2023-04-25T19:24:04.831Z,4.06
2023-04-25T19:26:31.915Z,4.13
2023-04-25T19:29:04.980Z,3.97
2023-04-25T19:31:32.834Z,4.08
2023-04-25T19:33:59.652Z,4.26
2023-04-25T19:36:27.666Z,4.28
2023-04-25T19:38:54.653Z,4.21
2023-04-25T19:41:21.349Z,3.90
2023-04-25T19:43:48.053Z,4.11
2023-04-25T19:46:14.778Z,4.17
2023-04-25T19:48:41.542Z,4.65
2023-04-25T19:51:09.049Z,4.43
2023-04-25T19:53:35.774Z,4.37
2023-04-25T19:56:02.800Z,4.56
2023-04-25T19:58:29.739Z,4.48
2023-04-25T20:00:57.568Z,4.48
2023-04-25T20:03:24.292Z,4.66
2023-04-25T20:05:51.072Z,4.84
2023-04-25T20:08:17.724Z,4.48
2023-04-25T20:10:44.298Z,4.49
2023-04-25T20:13:10.987Z,4.78
2023-04-25T20:15:37.898Z,4.77
2023-04-25T20:18:04.603Z,4.98
2023-04-25T20:20:31.198Z,4.83
2023-04-25T20:22:57.835Z,5.18
2023-04-25T20:25:24.918Z,5.08
2023-04-25T20:27:51.556Z,5.14
2023-04-25T20:30:18.385Z,5.47
2023-04-25T20:32:44.991Z,5.68
2023-04-25T20:35:12.595Z,5.54
2023-04-25T20:37:39.331Z,5.45
2023-04-25T20:40:08.897Z,5.31
2023-04-25T20:42:36.323Z,5.36
2023-04-25T20:45:07.415Z,5.34
2023-04-25T20:47:34.715Z,5.45
2023-04-25T20:50:03.809Z,5.63
2023-04-25T20:52:31.840Z,6.14
2023-04-25T20:54:58.819Z,6.40
2023-04-25T20:57:25.856Z,6.05
2023-04-25T20:59:52.943Z,5.55
2023-04-25T21:02:19.979Z,5.75
2023-04-25T21:04:46.691Z,5.80
2023-04-25T21:07:13.843Z,5.63
2023-04-25T21:09:41.755Z,5.47
2023-04-25T21:12:08.895Z,5.55
2023-04-25T21:14:35.756Z,5.58
2023-04-25T21:17:04.273Z,5.53
2023-04-25T21:19:31.228Z,5.53
2023-04-25T21:21:58.088Z,5.61
2023-04-25T21:24:26.843Z,5.58
2023-04-25T21:26:53.459Z,5.95
2023-04-25T21:29:20.033Z,5.72
2023-04-25T21:31:46.674Z,5.58
2023-04-25T21:34:13.279Z,5.84
2023-04-25T21:36:41.153Z,6.11
2023-04-25T21:39:07.887Z,5.81
2023-04-25T21:41:34.503Z,6.12
2023-04-25T21:44:01.088Z,5.72
2023-04-25T21:46:28.255Z,5.47
2023-04-25T21:48:55.181Z,5.51
2023-04-25T21:51:22.639Z,5.63
2023-04-25T21:53:49.196Z,5.88
2023-04-25T21:56:15.780Z,5.96
2023-04-25T21:58:42.321Z,5.89
2023-04-25T22:01:09.813Z,6.00
2023-04-25T22:03:36.512Z,5.93
2023-04-25T22:06:03.977Z,5.91
2023-04-25T22:08:30.593Z,5.82
2023-04-25T22:10:57.194Z,6.20
2023-04-25T22:13:23.830Z,6.12
2023-04-25T22:15:50.722Z,6.09
2023-04-25T22:18:17.886Z,6.42
2023-04-25T22:20:44.841Z,6.32
2023-04-25T22:23:12.158Z,6.12
2023-04-25T22:25:38.819Z,6.01
2023-04-25T22:28:05.394Z,6.27
2023-04-25T22:30:32.438Z,6.20
2023-04-25T22:32:59.064Z,6.03
2023-04-25T22:35:25.673Z,5.69
2023-04-25T22:37:52.353Z,5.76
2023-04-25T22:40:19.034Z,5.85
2023-04-25T22:42:46.084Z,5.76
2023-04-25T22:45:13.064Z,5.63
2023-04-25T22:47:40.122Z,5.56
2023-04-25T22:50:12.354Z,5.59
2023-04-25T22:52:39.669Z,5.53
2023-04-25T22:55:06.809Z,5.81
2023-04-25T22:57:33.397Z,5.50
2023-04-25T23:00:00.020Z,5.85
2023-04-25T23:02:27.524Z,5.32
2023-04-25T23:04:54.978Z,6.03
2023-04-25T23:07:21.624Z,5.94
2023-04-25T23:09:48.201Z,5.73
2023-04-25T23:12:18.036Z,5.13
2023-04-25T23:14:48.962Z,5.47
2023-04-25T23:17:15.504Z,5.71
2023-04-25T23:19:42.033Z,6.22
2023-04-25T23:22:09.008Z,6.27
2023-04-25T23:24:39.148Z,6.59
2023-04-25T23:27:05.928Z,6.34
2023-04-25T23:29:34.089Z,6.70
2023-04-25T23:32:04.166Z,6.42
2023-04-25T23:34:31.530Z,6.53
2023-04-25T23:37:00.831Z,6.47
2023-04-25T23:39:28.169Z,6.67
2023-04-25T23:41:54.757Z,6.76
2023-04-25T23:44:21.344Z,6.50
2023-04-25T23:46:48.500Z,6.45
2023-04-25T23:49:15.095Z,6.55
2023-04-25T23:51:41.644Z,6.54
2023-04-25T23:54:08.387Z,6.13
2023-04-25T23:56:34.939Z,6.65
2023-04-25T23:59:01.590Z,6.84
